createdAt,value
2023-04-03T00:01:06.452Z,101222.00
2023-04-03T00:03:39.465Z,101218.00
2023-04-03T00:06:13.472Z,101223.00
2023-04-03T00:08:46.747Z,101215.00
2023-04-03T00:11:19.638Z,101214.00
2023-04-03T00:13:52.497Z,101215.00
2023-04-03T00:16:25.601Z,101212.00
2023-04-03T00:18:58.516Z,101209.00
2023-04-03T00:21:31.706Z,101213.00
2023-04-03T00:24:04.648Z,101210.00
2023-04-03T00:26:42.886Z,101214.00
2023-04-03T00:29:15.898Z,101213.00
2023-04-03T00:31:48.862Z,101224.00
2023-04-03T00:34:22.577Z,101233.00
2023-04-03T00:36:55.691Z,101238.00
2023-04-03T00:39:28.511Z,101226.00
2023-04-03T00:42:01.843Z,101234.00
2023-04-03T00:44:40.046Z,101225.00
2023-04-03T00:47:14.860Z,101222.00
2023-04-03T00:49:50.188Z,101208.00
2023-04-03T00:52:29.081Z,101205.00
2023-04-03T00:55:03.901Z,101221.00
2023-04-03T00:57:38.300Z,101202.00
2023-04-03T01:00:16.815Z,101202.00
2023-04-03T01:02:55.239Z,101205.00
2023-04-03T01:05:28.181Z,101203.00
2023-04-03T01:08:01.437Z,101202.00
2023-04-03T01:10:35.398Z,101193.00
2023-04-03T01:13:10.503Z,101197.00
2023-04-03T01:15:43.344Z,101183.00
2023-04-03T01:18:16.179Z,101197.00
2023-04-03T01:20:56.949Z,101184.00
2023-04-03T01:23:44.317Z,101187.00
2023-04-03T01:26:18.008Z,101172.00
2023-04-03T01:28:50.978Z,101175.00
2023-04-03T01:31:38.147Z,101176.00
2023-04-03T01:34:11.058Z,101172.00
2023-04-03T01:36:44.258Z,101188.00
2023-04-03T01:39:18.756Z,101182.00
2023-04-03T01:41:52.073Z,101165.00
2023-04-03T01:44:24.933Z,101169.00
2023-04-03T01:46:58.179Z,101182.00
2023-04-03T01:49:31.229Z,101171.00
2023-04-03T01:52:04.223Z,101173.00
2023-04-03T01:54:37.604Z,101161.00
2023-04-03T01:57:10.833Z,101162.00
2023-04-03T01:59:43.954Z,101165.00
2023-04-03T02:02:17.580Z,101147.00
2023-04-03T02:04:50.692Z,101156.00
2023-04-03T02:07:24.083Z,101147.00
2023-04-03T02:09:57.317Z,101155.00
2023-04-03T02:12:30.573Z,101149.00
2023-04-03T02:15:08.317Z,101154.00
2023-04-03T02:17:41.479Z,101148.00
2023-04-03T02:20:14.683Z,101147.00
2023-04-03T02:22:48.063Z,101148.00
2023-04-03T02:25:21.236Z,101151.00
2023-04-03T02:27:54.289Z,101155.00
2023-04-03T02:30:27.171Z,101146.00
2023-04-03T02:32:59.953Z,101155.00
2023-04-03T02:35:33.034Z,101159.00
2023-04-03T02:38:06.118Z,101156.00
2023-04-03T02:40:39.338Z,101150.00
2023-04-03T02:43:12.965Z,101142.00
2023-04-03T02:45:45.885Z,101141.00
2023-04-03T02:48:19.663Z,101136.00
2023-04-03T02:50:52.724Z,101133.00
2023-04-03T02:53:25.828Z,101133.00
2023-04-03T02:55:58.782Z,101145.00
2023-04-03T02:58:31.723Z,101139.00
2023-04-03T03:01:04.690Z,101136.00
2023-04-03T03:03:37.585Z,101140.00
2023-04-03T03:06:12.136Z,101134.00
2023-04-03T03:08:45.628Z,101136.00
2023-04-03T03:11:18.515Z,101133.00
2023-04-03T03:13:51.607Z,101127.00
2023-04-03T03:16:24.569Z,101133.00
2023-04-03T03:18:59.087Z,101140.00
2023-04-03T03:21:32.483Z,101134.00
2023-04-03T03:24:05.654Z,101137.00
2023-04-03T03:26:38.635Z,101139.00
2023-04-03T03:29:11.813Z,101129.00
2023-04-03T03:31:44.746Z,101130.00
2023-04-03T03:34:18.388Z,101128.00
2023-04-03T03:36:51.700Z,101136.00
2023-04-03T03:39:24.698Z,101127.00
2023-04-03T03:41:57.693Z,101123.00
2023-04-03T03:44:32.030Z,101129.00
2023-04-03T03:47:05.917Z,101128.00
2023-04-03T03:49:39.098Z,101132.00
2023-04-03T03:52:13.076Z,101125.00
2023-04-03T03:54:46.088Z,101132.00
2023-04-03T03:57:19.172Z,101134.00
2023-04-03T03:59:55.892Z,101125.00
2023-04-03T04:02:29.040Z,101127.00
2023-04-03T04:05:02.184Z,101117.00
2023-04-03T04:07:35.302Z,101117.00
2023-04-03T04:10:08.822Z,101116.00
2023-04-03T04:12:41.856Z,101114.00
2023-04-03T04:15:15.507Z,101116.00
2023-04-03T04:17:48.651Z,101120.00
2023-04-03T04:20:23.367Z,101120.00
2023-04-03T04:22:56.428Z,101117.00
2023-04-03T04:25:29.316Z,101121.00
2023-04-03T04:28:02.281Z,101113.00
2023-04-03T04:30:35.458Z,101125.00
2023-04-03T04:33:08.266Z,101124.00
2023-04-03T04:35:41.897Z,101128.00
2023-04-03T04:38:14.998Z,101136.00
2023-04-03T04:40:47.805Z,101128.00
2023-04-03T04:43:20.881Z,101138.00
2023-04-03T04:45:55.942Z,101127.00
2023-04-03T04:48:31.401Z,101141.00
2023-04-03T04:51:03.745Z,101135.00
2023-04-03T04:53:36.593Z,101140.00
2023-04-03T04:56:10.366Z,101145.00
2023-04-03T04:58:43.579Z,101137.00
2023-04-03T05:01:17.599Z,101147.00
2023-04-03T05:03:50.838Z,101135.00
2023-04-03T05:06:23.592Z,101139.00
2023-04-03T05:08:56.278Z,101145.00
2023-04-03T05:11:29.636Z,101144.00
2023-04-03T05:14:02.668Z,101144.00
2023-04-03T05:16:35.712Z,101150.00
2023-04-03T05:19:08.676Z,101145.00
2023-04-03T05:21:41.604Z,101145.00
2023-04-03T05:24:14.652Z,101157.00
2023-04-03T05:26:47.763Z,101153.00
2023-04-03T05:29:20.884Z,101159.00
2023-04-03T05:31:54.974Z,101160.00
2023-04-03T05:34:27.912Z,101169.00
2023-04-03T05:37:01.061Z,101161.00
2023-04-03T05:39:37.898Z,101168.00
2023-04-03T05:42:10.613Z,101170.00
2023-04-03T05:44:43.754Z,101164.00
2023-04-03T05:47:17.393Z,101168.00
2023-04-03T05:49:50.934Z,101176.00
2023-04-03T05:52:34.680Z,101182.00
2023-04-03T05:55:08.044Z,101180.00
2023-04-03T05:57:41.598Z,101191.00
2023-04-03T06:00:15.858Z,101188.00
2023-04-03T06:02:49.117Z,101192.00
2023-04-03T06:05:22.394Z,101194.00
2023-04-03T06:07:55.185Z,101203.00
2023-04-03T06:10:28.226Z,101212.00
2023-04-03T06:13:01.291Z,101205.00
2023-04-03T06:15:34.255Z,101222.00
2023-04-03T06:18:07.214Z,101220.00
2023-04-03T06:20:40.491Z,101227.00
2023-04-03T06:23:13.676Z,101226.00
2023-04-03T06:25:46.583Z,101224.00
2023-04-03T06:28:19.570Z,101223.00
2023-04-03T06:30:52.523Z,101226.00
2023-04-03T06:33:25.690Z,101227.00
2023-04-03T06:36:06.771Z,101230.00
2023-04-03T06:38:39.675Z,101237.00
2023-04-03T06:41:12.839Z,101232.00
2023-04-03T06:43:45.939Z,101243.00
2023-04-03T06:46:23.196Z,101255.00
2023-04-03T06:48:56.840Z,101262.00
2023-04-03T06:51:31.814Z,101258.00
2023-04-03T06:54:05.373Z,101247.00
2023-04-03T06:56:38.595Z,101253.00
2023-04-03T06:59:11.414Z,101245.00
2023-04-03T07:01:44.803Z,101256.00
2023-04-03T07:04:17.757Z,101250.00
2023-04-03T07:06:50.915Z,101251.00
2023-04-03T07:09:24.341Z,101267.00
2023-04-03T07:11:57.186Z,101278.00
2023-04-03T07:14:30.462Z,101277.00
2023-04-03T07:17:03.604Z,101284.00
2023-04-03T07:19:36.736Z,101284.00
2023-04-03T07:22:09.953Z,101294.00
2023-04-03T07:24:43.065Z,101286.00
2023-04-03T07:27:16.049Z,101282.00
2023-04-03T07:29:50.420Z,101293.00
2023-04-03T07:32:23.444Z,101289.00
2023-04-03T07:34:56.429Z,101294.00
2023-04-03T07:37:29.551Z,101292.00
2023-04-03T07:40:02.825Z,101296.00
2023-04-03T07:42:35.882Z,101303.00
2023-04-03T07:45:09.779Z,101295.00
2023-04-03T07:47:43.382Z,101299.00
2023-04-03T07:50:17.362Z,101302.00
2023-04-03T07:52:50.607Z,101298.00
2023-04-03T07:55:23.712Z,101309.00
2023-04-03T07:57:56.697Z,101305.00
2023-04-03T08:00:29.931Z,101305.00
2023-04-03T08:03:02.932Z,101311.00
2023-04-03T08:05:36.025Z,101306.00
2023-04-03T08:08:09.365Z,101306.00
2023-04-03T08:10:42.818Z,101307.00
2023-04-03T08:13:15.847Z,101313.00
2023-04-03T08:15:48.812Z,101316.00
2023-04-03T08:18:23.278Z,101319.00
2023-04-03T08:20:56.404Z,101315.00
2023-04-03T08:23:29.427Z,101323.00
2023-04-03T08:26:02.279Z,101330.00
2023-04-03T08:28:35.123Z,101320.00
2023-04-03T08:31:14.312Z,101333.00
2023-04-03T08:33:47.148Z,101337.00
2023-04-03T08:36:28.075Z,101349.00
2023-04-03T08:39:01.347Z,101360.00
2023-04-03T08:41:35.862Z,101358.00
2023-04-03T08:44:22.726Z,101360.00
2023-04-03T08:47:21.862Z,101367.00
2023-04-03T08:50:03.820Z,101355.00
2023-04-03T08:52:50.634Z,101355.00
2023-04-03T08:55:28.301Z,101351.00
2023-04-03T08:58:09.259Z,101355.00
2023-04-03T09:00:44.304Z,101361.00
2023-04-03T09:03:22.087Z,101356.00
2023-04-03T09:06:06.349Z,101357.00
2023-04-03T09:08:47.231Z,101366.00
2023-04-03T09:11:43.326Z,101366.00
2023-04-03T09:14:42.798Z,101371.00
2023-04-03T09:17:37.342Z,101370.00
2023-04-03T09:20:12.209Z,101376.00
2023-04-03T09:22:53.059Z,101370.00
2023-04-03T09:25:36.358Z,101370.00
2023-04-03T09:28:11.323Z,101364.00
2023-04-03T09:30:44.540Z,101379.00
2023-04-03T09:33:18.517Z,101370.00
2023-04-03T09:35:52.596Z,101365.00
2023-04-03T09:38:27.525Z,101367.00
2023-04-03T09:41:14.142Z,101369.00
2023-04-03T09:43:49.252Z,101371.00
2023-04-03T09:46:36.655Z,101372.00
2023-04-03T09:49:10.226Z,101377.00
2023-04-03T09:51:43.794Z,101377.00
2023-04-03T09:54:41.229Z,101369.00
2023-04-03T09:57:16.391Z,101362.00
2023-04-03T09:59:54.345Z,101370.00
2023-04-03T10:02:29.571Z,101365.00
2023-04-03T10:07:44.395Z,101363.00
2023-04-03T10:10:32.690Z,101373.00
2023-04-03T10:13:20.179Z,101361.00
2023-04-03T10:16:07.998Z,101374.00
2023-04-03T10:18:57.919Z,101376.00
2023-04-03T10:21:38.853Z,101381.00
2023-04-03T10:24:14.333Z,101383.00
2023-04-03T10:27:11.823Z,101388.00
2023-04-03T10:30:06.337Z,101395.00
2023-04-03T10:32:59.528Z,101390.00
2023-04-03T10:36:06.034Z,101395.00
2023-04-03T10:38:53.489Z,101395.00
2023-04-03T10:41:46.241Z,101400.00
2023-04-03T10:44:36.569Z,101402.00
2023-04-03T10:47:13.998Z,101409.00
2023-04-03T10:49:59.432Z,101415.00
2023-04-03T10:52:50.059Z,101420.00
2023-04-03T10:55:28.563Z,101411.00
2023-04-03T10:58:03.269Z,101413.00
2023-04-03T11:00:50.324Z,101409.00
2023-04-03T11:03:28.521Z,101419.00
2023-04-03T11:06:02.936Z,101414.00
2023-04-03T11:08:43.744Z,101410.00
2023-04-03T11:11:21.641Z,101416.00
2023-04-03T11:14:08.350Z,101429.00
2023-04-03T11:16:53.638Z,101426.00
2023-04-03T11:19:28.073Z,101425.00
2023-04-03T11:22:05.143Z,101432.00
2023-04-03T11:24:40.409Z,101431.00
2023-04-03T11:27:15.198Z,101431.00
2023-04-03T11:29:49.813Z,101428.00
2023-04-03T11:32:33.351Z,101417.00
2023-04-03T11:35:08.427Z,101418.00
2023-04-03T11:37:48.767Z,101433.00
2023-04-03T11:40:26.600Z,101423.00
2023-04-03T11:43:01.425Z,101430.00
2023-04-03T11:45:42.121Z,101427.00
2023-04-03T11:48:34.701Z,101433.00
2023-04-03T11:51:22.021Z,101422.00
2023-04-03T11:53:55.101Z,101427.00
2023-04-03T11:56:33.893Z,101425.00
2023-04-03T11:59:19.841Z,101414.00
2023-04-03T12:01:54.999Z,101421.00
2023-04-03T12:04:30.082Z,101423.00
2023-04-03T12:07:11.532Z,101433.00
2023-04-03T12:09:54.080Z,101430.00
2023-04-03T12:12:41.813Z,101425.00
2023-04-03T12:15:31.706Z,101436.00
2023-04-03T12:18:06.096Z,101436.00
2023-04-03T12:20:57.974Z,101428.00
2023-04-03T12:23:41.405Z,101426.00
2023-04-03T12:26:38.460Z,101427.00
2023-04-03T12:29:07.270Z,101422.00
2023-04-03T12:31:44.565Z,101424.00
2023-04-03T12:34:45.382Z,101425.00
2023-04-03T12:37:42.533Z,101431.00
2023-04-03T12:40:30.340Z,101425.00
2023-04-03T12:43:24.418Z,101418.00
2023-04-03T12:46:14.992Z,101418.00
2023-04-03T12:48:59.073Z,101422.00
2023-04-03T12:51:45.646Z,101417.00
2023-04-03T12:54:33.068Z,101418.00
2023-04-03T12:57:31.536Z,101421.00
2023-04-03T13:00:06.671Z,101417.00
2023-04-03T13:02:40.671Z,101420.00
2023-04-03T13:05:15.629Z,101415.00
2023-04-03T13:07:49.324Z,101413.00
2023-04-03T13:10:23.360Z,101413.00
2023-04-03T13:13:01.487Z,101422.00
2023-04-03T13:15:36.806Z,101419.00
2023-04-03T13:18:12.777Z,101427.00
2023-04-03T13:20:45.886Z,101424.00
2023-04-03T13:23:21.123Z,101425.00
2023-04-03T13:25:54.374Z,101432.00
2023-04-03T13:28:28.914Z,101428.00
2023-04-03T13:31:31.161Z,101428.00
2023-04-03T13:34:15.537Z,101435.00
2023-04-03T13:36:56.629Z,101424.00
2023-04-03T13:39:32.092Z,101427.00
2023-04-03T13:42:07.653Z,101423.00
2023-04-03T13:44:42.397Z,101433.00
2023-04-03T13:47:20.222Z,101426.00
2023-04-03T13:50:07.771Z,101430.00
2023-04-03T13:52:49.057Z,101422.00
2023-04-03T13:55:33.845Z,101415.00
2023-04-03T13:58:18.176Z,101418.00
2023-04-03T14:00:56.402Z,101417.00
2023-04-03T14:03:34.976Z,101415.00
2023-04-03T14:06:12.249Z,101417.00
2023-04-03T14:08:45.355Z,101419.00
2023-04-03T14:11:25.386Z,101410.00
2023-04-03T14:14:00.253Z,101426.00
2023-04-03T14:16:35.913Z,101424.00
2023-04-03T14:19:09.331Z,101427.00
2023-04-03T14:21:42.403Z,101427.00
2023-04-03T14:24:15.426Z,101412.00
2023-04-03T14:26:49.275Z,101418.00
2023-04-03T14:29:22.799Z,101410.00
2023-04-03T14:32:07.872Z,101413.00
2023-04-03T14:34:30.578Z,101408.00
2023-04-03T14:37:03.533Z,101408.00
2023-04-03T14:39:37.870Z,101408.00
2023-04-03T14:42:15.110Z,101417.00
2023-04-03T14:44:52.262Z,101413.00
2023-04-03T14:47:31.090Z,101398.00
2023-04-03T14:50:01.304Z,101405.00
2023-04-03T14:52:35.966Z,101403.00
2023-04-03T14:55:10.857Z,101406.00
2023-04-03T14:57:44.100Z,101403.00
2023-04-03T15:00:21.868Z,101401.00
2023-04-03T15:02:55.317Z,101404.00
2023-04-03T15:05:28.289Z,101402.00
2023-04-03T15:08:03.372Z,101406.00
2023-04-03T15:10:37.145Z,101399.00
2023-04-03T15:13:10.098Z,101394.00
2023-04-03T15:15:43.029Z,101394.00
2023-04-03T15:18:18.047Z,101392.00
2023-04-03T15:20:51.184Z,101388.00
2023-04-03T15:23:25.410Z,101392.00
2023-04-03T15:25:58.755Z,101396.00
2023-04-03T15:28:39.874Z,101383.00
2023-04-03T15:31:13.830Z,101394.00
2023-04-03T15:33:49.255Z,101392.00
2023-04-03T15:36:33.433Z,101392.00
2023-04-03T15:38:56.509Z,101404.00
2023-04-03T15:41:29.461Z,101398.00
2023-04-03T15:44:02.483Z,101399.00
2023-04-03T15:46:36.649Z,101403.00
2023-04-03T15:49:10.033Z,101407.00
2023-04-03T15:51:42.994Z,101411.00
2023-04-03T15:54:15.940Z,101414.00
2023-04-03T15:56:49.408Z,101408.00
2023-04-03T15:59:22.545Z,101418.00
2023-04-03T16:01:56.520Z,101408.00
2023-04-03T16:04:29.563Z,101412.00
2023-04-03T16:07:04.114Z,101412.00
2023-04-03T16:09:38.487Z,101413.00
2023-04-03T16:12:11.471Z,101416.00
2023-04-03T16:14:44.508Z,101412.00
2023-04-03T16:17:17.607Z,101417.00
2023-04-03T16:19:50.515Z,101416.00
2023-04-03T16:22:23.520Z,101411.00
2023-04-03T16:24:58.961Z,101421.00
2023-04-03T16:27:33.912Z,101417.00
2023-04-03T16:30:11.004Z,101418.00
2023-04-03T16:32:44.607Z,101420.00
2023-04-03T16:35:17.473Z,101426.00
2023-04-03T16:37:50.312Z,101427.00
2023-04-03T16:40:23.239Z,101421.00
2023-04-03T16:42:56.243Z,101421.00
2023-04-03T16:45:28.960Z,101431.00
2023-04-03T16:48:02.105Z,101426.00
2023-04-03T16:50:35.481Z,101427.00
2023-04-03T16:53:09.565Z,101432.00
2023-04-03T16:55:43.033Z,101430.00
2023-04-03T16:58:16.044Z,101440.00
2023-04-03T17:00:50.134Z,101442.00
2023-04-03T17:03:23.214Z,101446.00
2023-04-03T17:05:56.014Z,101451.00
2023-04-03T17:08:29.074Z,101456.00
2023-04-03T17:11:02.031Z,101454.00
2023-04-03T17:13:36.254Z,101455.00
2023-04-03T17:16:14.201Z,101461.00
2023-04-03T17:18:47.109Z,101455.00
2023-04-03T17:21:20.654Z,101456.00
2023-04-03T17:23:55.555Z,101461.00
2023-04-03T17:26:28.529Z,101465.00
2023-04-03T17:29:01.444Z,101464.00
2023-04-03T17:31:34.416Z,101475.00
2023-04-03T17:34:07.401Z,101474.00
2023-04-03T17:36:40.467Z,101472.00
2023-04-03T17:39:13.644Z,101485.00
2023-04-03T17:41:47.931Z,101485.00
2023-04-03T17:44:20.790Z,101489.00
2023-04-03T17:46:53.909Z,101491.00
2023-04-03T17:49:27.210Z,101483.00
2023-04-03T17:52:00.439Z,101482.00
2023-04-03T17:54:33.510Z,101491.00
2023-04-03T17:57:06.554Z,101498.00
2023-04-03T17:59:39.630Z,101493.00
2023-04-03T18:02:13.361Z,101502.00
2023-04-03T18:04:46.385Z,101497.00
2023-04-03T18:07:19.373Z,101504.00
2023-04-03T18:09:54.243Z,101505.00
2023-04-03T18:12:27.292Z,101505.00
2023-04-03T18:15:00.233Z,101514.00
2023-04-03T18:17:33.053Z,101523.00
2023-04-03T18:20:07.174Z,101514.00
2023-04-03T18:22:40.141Z,101515.00
2023-04-03T18:25:14.368Z,101523.00
2023-04-03T18:27:48.403Z,101517.00
2023-04-03T18:30:22.187Z,101511.00
2023-04-03T18:32:55.171Z,101518.00
2023-04-03T18:35:28.138Z,101523.00
2023-04-03T18:38:01.245Z,101533.00
2023-04-03T18:40:35.222Z,101520.00
2023-04-03T18:43:08.752Z,101524.00
2023-04-03T18:45:42.235Z,101536.00
2023-04-03T18:48:15.703Z,101531.00
2023-04-03T18:50:49.160Z,101530.00
2023-04-03T18:53:22.193Z,101539.00
2023-04-03T18:55:54.975Z,101536.00
2023-04-03T18:58:28.260Z,101538.00
2023-04-03T19:01:03.680Z,101544.00
2023-04-03T19:03:37.757Z,101546.00
2023-04-03T19:06:11.889Z,101541.00
2023-04-03T19:08:44.715Z,101549.00
2023-04-03T19:11:20.086Z,101547.00
2023-04-03T19:14:10.375Z,101547.00
2023-04-03T19:16:27.118Z,101556.00
2023-04-03T19:19:00.222Z,101560.00
2023-04-03T19:21:33.109Z,101566.00
2023-04-03T19:24:06.148Z,101573.00
2023-04-03T19:26:39.213Z,101567.00
2023-04-03T19:29:12.105Z,101572.00
2023-04-03T19:31:45.138Z,101578.00
2023-04-03T19:34:18.183Z,101580.00
2023-04-03T19:36:51.394Z,101576.00
2023-04-03T19:39:24.463Z,101587.00
2023-04-03T19:41:57.639Z,101604.00
2023-04-03T19:44:31.054Z,101603.00
2023-04-03T19:47:05.064Z,101602.00
2023-04-03T19:49:38.053Z,101614.00
2023-04-03T19:52:10.946Z,101613.00
2023-04-03T19:54:43.831Z,101620.00
2023-04-03T19:57:17.307Z,101621.00
2023-04-03T19:59:50.294Z,101623.00
2023-04-03T20:02:23.653Z,101630.00
2023-04-03T20:04:59.498Z,101627.00
2023-04-03T20:07:32.592Z,101635.00
2023-04-03T20:10:08.083Z,101642.00
2023-04-03T20:12:41.383Z,101642.00
2023-04-03T20:15:15.657Z,101630.00
2023-04-03T20:17:48.471Z,101635.00
2023-04-03T20:20:21.482Z,101635.00
2023-04-03T20:22:55.800Z,101639.00
2023-04-03T20:25:48.080Z,101645.00
2023-04-03T20:28:03.451Z,101647.00
2023-04-03T20:30:36.385Z,101642.00
2023-04-03T20:33:09.303Z,101648.00
2023-04-03T20:35:46.709Z,101648.00
2023-04-03T20:38:20.239Z,101651.00
2023-04-03T20:40:53.117Z,101654.00
2023-04-03T20:43:26.147Z,101657.00
2023-04-03T20:45:59.193Z,101656.00
2023-04-03T20:48:32.063Z,101657.00
2023-04-03T20:51:13.261Z,101649.00
2023-04-03T20:53:46.263Z,101654.00
2023-04-03T20:56:19.851Z,101652.00
2023-04-03T20:58:53.058Z,101640.00
2023-04-03T21:01:27.083Z,101648.00
2023-04-03T21:04:05.777Z,101655.00
2023-04-03T21:07:13.420Z,101652.00
2023-04-03T21:10:21.717Z,101657.00
2023-04-03T21:13:29.570Z,101657.00
2023-04-03T21:16:05.604Z,101656.00
2023-04-03T21:18:50.102Z,101655.00
2023-04-03T21:21:27.983Z,101661.00
2023-04-03T21:24:01.073Z,101657.00
2023-04-03T21:26:39.565Z,101662.00
2023-04-03T21:29:13.317Z,101657.00
2023-04-03T21:31:54.452Z,101657.00
2023-04-03T21:34:31.356Z,101664.00
2023-04-03T21:37:09.659Z,101664.00
2023-04-03T21:39:46.755Z,101656.00
2023-04-03T21:42:19.746Z,101670.00
2023-04-03T21:44:52.897Z,101661.00
2023-04-03T21:47:25.843Z,101672.00
2023-04-03T21:49:59.016Z,101664.00
2023-04-03T21:52:31.693Z,101670.00
2023-04-03T21:55:04.838Z,101665.00
2023-04-03T21:57:42.540Z,101668.00
2023-04-03T22:00:16.529Z,101670.00
2023-04-03T22:02:51.277Z,101683.00
2023-04-03T22:05:24.760Z,101673.00
2023-04-03T22:07:57.799Z,101677.00
2023-04-03T22:10:31.390Z,101681.00
2023-04-03T22:13:08.637Z,101677.00
2023-04-03T22:15:43.775Z,101682.00
2023-04-03T22:18:16.535Z,101682.00
2023-04-03T22:20:53.742Z,101687.00
2023-04-03T22:23:27.056Z,101693.00
2023-04-03T22:26:11.156Z,101690.00
2023-04-03T22:28:46.180Z,101695.00
2023-04-03T22:31:19.340Z,101690.00
2023-04-03T22:33:52.137Z,101696.00
2023-04-03T22:36:25.033Z,101692.00
2023-04-03T22:38:59.164Z,101685.00
2023-04-03T22:41:32.378Z,101689.00
2023-04-03T22:44:05.391Z,101686.00
2023-04-03T22:46:38.253Z,101686.00
2023-04-03T22:49:11.231Z,101682.00
2023-04-03T22:51:44.192Z,101681.00
2023-04-03T22:54:17.189Z,101672.00
2023-04-03T22:56:50.592Z,101682.00
2023-04-03T22:59:23.695Z,101679.00
2023-04-03T23:01:56.476Z,101675.00
2023-04-03T23:04:29.186Z,101669.00
2023-04-03T23:07:02.144Z,101672.00
2023-04-03T23:09:35.150Z,101669.00
2023-04-03T23:12:08.235Z,101672.00
2023-04-03T23:14:45.326Z,101661.00
2023-04-03T23:17:18.195Z,101669.00
2023-04-03T23:19:51.724Z,101671.00
2023-04-03T23:22:24.662Z,101669.00
2023-04-03T23:24:57.607Z,101667.00
2023-04-03T23:27:30.585Z,101661.00
2023-04-03T23:30:03.526Z,101658.00
2023-04-03T23:32:36.773Z,101658.00
2023-04-03T23:35:10.767Z,101666.00
2023-04-03T23:37:44.543Z,101654.00
2023-04-03T23:40:17.814Z,101646.00
2023-04-03T23:42:50.668Z,101643.00
2023-04-03T23:45:23.584Z,101644.00
2023-04-03T23:47:56.588Z,101646.00
2023-04-03T23:50:29.699Z,101644.00
2023-04-03T23:53:02.938Z,101645.00
2023-04-03T23:55:35.753Z,101648.00
2023-04-03T23:58:13.403Z,101641.00
